Decoded Metar for LIBC (CROTONE in ITALY) (IATA:CRV) | Meteo·Mobile Aviation Weather
aviador You're here:

LIBC Decoded Metar

CROTONE in ITALY
Report Time2018-08-19 13:50:00
UTC Time2018-08-19 14:06:38
Flight Rules vfr VFR
Wind020° at 06 kt
W.Decomp.*RWY 35: 5.3 kt HW 2.7 kt RCW
W.Rank020° ranks 7
Current wind is below 020° avg. (8.9)
Visibility9999 m
Phenomena:N/A
Clouds:N/A
Expected CloudBase > 2,800 ft AGL from Temp-Dew spread
CeilingNone
Temp27°C (ISA +13)
Dew Point20°C (66% RH)
Heat Index28.5°C
QNH1014 hPa
Density Alt2,310 ft
Elevation528 ft
Report Wrong Elevation
Raw Report
METAR LIBC 191350Z 02006KT 360V060 CAVOK 27/20 Q1014=

Extra information for LIBC:More info

Metar Taf Metar & Taf Last 4 Metars F.Rules Stats Wind Profile Meteogram Temp Stats Airport Information Weather charts Add Link Nearby VenuesMetar ALERT Operation Metar Decoded Social comments